sensor_id;sensor_type;location;lat;lon;timestamp;P1;durP1;ratioP1;P2;durP2;ratioP2
9138;SDS011;4604;48.616;9.548;2024-03-23T00:51:17;3.07;;;2.63;;
9138;SDS011;4604;48.616;9.548;2024-03-23T00:53:43;3.97;;;2.70;;
9138;SDS011;4604;48.616;9.548;2024-03-23T00:56:09;2.60;;;2.40;;
9138;SDS011;4604;48.616;9.548;2024-03-23T00:58:35;4.30;;;2.87;;
9138;SDS011;4604;48.616;9.548;2024-03-23T01:01:01;2.73;;;2.33;;
9138;SDS011;4604;48.616;9.548;2024-03-23T01:03:28;2.50;;;2.10;;
9138;SDS011;4604;48.616;9.548;2024-03-23T01:05:58;2.60;;;2.10;;
9138;SDS011;4604;48.616;9.548;2024-03-23T01:08:26;3.10;;;2.40;;
9138;SDS011;4604;48.616;9.548;2024-03-23T01:10:55;3.53;;;2.30;;
9138;SDS011;4604;48.616;9.548;2024-03-23T01:13:21;5.03;;;2.20;;
9138;SDS011;4604;48.616;9.548;2024-03-23T01:15:48;4.10;;;2.50;;
9138;SDS011;4604;48.616;9.548;2024-03-23T01:18:14;3.53;;;2.57;;
9138;SDS011;4604;48.616;9.548;2024-03-23T01:20:41;4.27;;;2.33;;
9138;SDS011;4604;48.616;9.548;2024-03-23T01:23:06;2.53;;;1.93;;
9138;SDS011;4604;48.616;9.548;2024-03-23T01:25:34;3.30;;;2.40;;
9138;SDS011;4604;48.616;9.548;2024-03-23T01:28:00;4.30;;;2.40;;
9138;SDS011;4604;48.616;9.548;2024-03-23T01:30:26;3.77;;;2.67;;
9138;SDS011;4604;48.616;9.548;2024-03-23T01:32:52;3.20;;;2.50;;
9138;SDS011;4604;48.616;9.548;2024-03-23T01:35:19;2.60;;;2.40;;
9138;SDS011;4604;48.616;9.548;2024-03-23T01:37:44;2.40;;;2.20;;
9138;SDS011;4604;48.616;9.548;2024-03-23T01:40:11;4.47;;;2.57;;
9138;SDS011;4604;48.616;9.548;2024-03-23T01:42:39;3.10;;;2.27;;
9138;SDS011;4604;48.616;9.548;2024-03-23T01:45:07;5.00;;;2.43;;
9138;SDS011;4604;48.616;9.548;2024-03-23T01:47:34;3.63;;;2.50;;
9138;SDS011;4604;48.616;9.548;2024-03-23T01:50:01;5.40;;;2.33;;
9138;SDS011;4604;48.616;9.548;2024-03-23T01:52:27;3.63;;;2.40;;
9138;SDS011;4604;48.616;9.548;2024-03-23T01:54:54;3.33;;;2.27;;
9138;SDS011;4604;48.616;9.548;2024-03-23T01:57:19;3.37;;;2.40;;
9138;SDS011;4604;48.616;9.548;2024-03-23T01:59:48;5.70;;;2.60;;
9138;SDS011;4604;48.616;9.548;2024-03-23T02:02:14;2.57;;;2.30;;
9138;SDS011;4604;48.616;9.548;2024-03-23T02:04:42;3.07;;;2.43;;
9138;SDS011;4604;48.616;9.548;2024-03-23T02:07:08;3.00;;;2.30;;
9138;SDS011;4604;48.616;9.548;2024-03-23T02:09:35;3.57;;;2.63;;
9138;SDS011;4604;48.616;9.548;2024-03-23T02:12:01;3.87;;;2.30;;
9138;SDS011;4604;48.616;9.548;2024-03-23T02:14:29;2.77;;;2.50;;
9138;SDS011;4604;48.616;9.548;2024-03-23T02:16:56;3.70;;;2.57;;
9138;SDS011;4604;48.616;9.548;2024-03-23T02:19:22;3.07;;;2.20;;
9138;SDS011;4604;48.616;9.548;2024-03-23T02:21:48;3.07;;;2.30;;
9138;SDS011;4604;48.616;9.548;2024-03-23T02:24:16;3.00;;;2.40;;
9138;SDS011;4604;48.616;9.548;2024-03-23T02:26:41;2.90;;;2.40;;
9138;SDS011;4604;48.616;9.548;2024-03-23T02:29:08;3.53;;;2.40;;
9138;SDS011;4604;48.616;9.548;2024-03-23T02:31:34;2.37;;;2.17;;
9138;SDS011;4604;48.616;9.548;2024-03-23T02:34:01;4.13;;;2.53;;
9138;SDS011;4604;48.616;9.548;2024-03-23T02:36:26;3.17;;;2.50;;
9138;SDS011;4604;48.616;9.548;2024-03-23T02:38:53;2.60;;;2.40;;
9138;SDS011;4604;48.616;9.548;2024-03-23T02:41:20;2.57;;;2.30;;
9138;SDS011;4604;48.616;9.548;2024-03-23T02:43:48;4.83;;;2.20;;
9138;SDS011;4604;48.616;9.548;2024-03-23T02:46:14;5.40;;;2.40;;
9138;SDS011;4604;48.616;9.548;2024-03-23T02:48:41;7.63;;;2.70;;
9138;SDS011;4604;48.616;9.548;2024-03-23T02:51:07;2.30;;;2.10;;
9138;SDS011;4604;48.616;9.548;2024-03-23T02:53:33;2.50;;;2.20;;
9138;SDS011;4604;48.616;9.548;2024-03-23T02:55:59;2.73;;;2.43;;
9138;SDS011;4604;48.616;9.548;2024-03-23T02:58:27;2.63;;;2.43;;
9138;SDS011;4604;48.616;9.548;2024-03-23T03:00:53;3.80;;;2.47;;
9138;SDS011;4604;48.616;9.548;2024-03-23T03:03:19;3.10;;;2.30;;
9138;SDS011;4604;48.616;9.548;2024-03-23T03:05:45;4.33;;;2.27;;
9138;SDS011;4604;48.616;9.548;2024-03-23T03:08:11;3.07;;;2.43;;
9138;SDS011;4604;48.616;9.548;2024-03-23T03:10:37;3.77;;;2.40;;
9138;SDS011;4604;48.616;9.548;2024-03-23T03:13:03;3.20;;;2.50;;
9138;SDS011;4604;48.616;9.548;2024-03-23T03:15:32;3.30;;;2.53;;
9138;SDS011;4604;48.616;9.548;2024-03-23T03:17:59;4.90;;;2.13;;
9138;SDS011;4604;48.616;9.548;2024-03-23T03:20:24;2.43;;;2.20;;
9138;SDS011;4604;48.616;9.548;2024-03-23T03:22:51;2.83;;;2.30;;
9138;SDS011;4604;48.616;9.548;2024-03-23T03:25:18;3.00;;;2.20;;
9138;SDS011;4604;48.616;9.548;2024-03-23T03:27:45;3.57;;;2.33;;
9138;SDS011;4604;48.616;9.548;2024-03-23T03:30:11;5.03;;;2.50;;
9138;SDS011;4604;48.616;9.548;2024-03-23T03:32:39;8.03;;;2.40;;
9138;SDS011;4604;48.616;9.548;2024-03-23T03:35:05;5.43;;;2.40;;
9138;SDS011;4604;48.616;9.548;2024-03-23T03:37:32;3.10;;;2.27;;
9138;SDS011;4604;48.616;9.548;2024-03-23T03:40:00;5.17;;;2.27;;
9138;SDS011;4604;48.616;9.548;2024-03-23T03:42:27;3.37;;;2.47;;
9138;SDS011;4604;48.616;9.548;2024-03-23T03:44:52;4.87;;;2.70;;
9138;SDS011;4604;48.616;9.548;2024-03-23T03:47:19;4.77;;;2.50;;
9138;SDS011;4604;48.616;9.548;2024-03-23T03:49:47;2.77;;;2.30;;
9138;SDS011;4604;48.616;9.548;2024-03-23T03:52:13;2.90;;;2.30;;
9138;SDS011;4604;48.616;9.548;2024-03-23T03:54:39;2.37;;;2.07;;
9138;SDS011;4604;48.616;9.548;2024-03-23T03:57:05;2.83;;;2.40;;
9138;SDS011;4604;48.616;9.548;2024-03-23T03:59:31;2.97;;;2.67;;
9138;SDS011;4604;48.616;9.548;2024-03-23T04:01:57;4.20;;;2.43;;
9138;SDS011;4604;48.616;9.548;2024-03-23T04:04:23;2.83;;;2.50;;
9138;SDS011;4604;48.616;9.548;2024-03-23T04:06:51;3.40;;;2.40;;
9138;SDS011;4604;48.616;9.548;2024-03-23T04:09:23;3.13;;;2.60;;
9138;SDS011;4604;48.616;9.548;2024-03-23T04:11:50;3.10;;;2.67;;
9138;SDS011;4604;48.616;9.548;2024-03-23T04:14:16;8.07;;;3.07;;
9138;SDS011;4604;48.616;9.548;2024-03-23T04:16:42;2.97;;;2.63;;
9138;SDS011;4604;48.616;9.548;2024-03-23T04:19:09;3.63;;;2.53;;
9138;SDS011;4604;48.616;9.548;2024-03-23T04:21:35;2.90;;;2.60;;
9138;SDS011;4604;48.616;9.548;2024-03-23T04:24:03;3.47;;;2.60;;
9138;SDS011;4604;48.616;9.548;2024-03-23T04:26:30;3.20;;;2.60;;
9138;SDS011;4604;48.616;9.548;2024-03-23T04:28:56;4.82;;;2.80;;
9138;SDS011;4604;48.616;9.548;2024-03-23T04:31:22;2.80;;;2.27;;
9138;SDS011;4604;48.616;9.548;2024-03-23T04:33:48;4.30;;;2.67;;
9138;SDS011;4604;48.616;9.548;2024-03-23T04:36:14;5.10;;;3.10;;
9138;SDS011;4604;48.616;9.548;2024-03-23T04:38:41;3.00;;;2.70;;
9138;SDS011;4604;48.616;9.548;2024-03-23T04:41:09;4.10;;;3.00;;
9138;SDS011;4604;48.616;9.548;2024-03-23T04:43:35;5.10;;;3.57;;
9138;SDS011;4604;48.616;9.548;2024-03-23T04:46:02;4.20;;;2.80;;
9138;SDS011;4604;48.616;9.548;2024-03-23T04:48:29;3.37;;;2.87;;
9138;SDS011;4604;48.616;9.548;2024-03-23T04:50:55;4.77;;;2.47;;
9138;SDS011;4604;48.616;9.548;2024-03-23T04:53:23;2.93;;;2.33;;
9138;SDS011;4604;48.616;9.548;2024-03-23T04:55:53;6.60;;;2.80;;
9138;SDS011;4604;48.616;9.548;2024-03-23T04:58:21;3.47;;;2.80;;
9138;SDS011;4604;48.616;9.548;2024-03-23T05:00:46;4.87;;;2.70;;
9138;SDS011;4604;48.616;9.548;2024-03-23T05:03:13;4.73;;;2.60;;
9138;SDS011;4604;48.616;9.548;2024-03-23T05:05:40;10.57;;;3.43;;
9138;SDS011;4604;48.616;9.548;2024-03-23T05:08:06;3.13;;;2.70;;
9138;SDS011;4604;48.616;9.548;2024-03-23T05:10:33;3.30;;;2.80;;
9138;SDS011;4604;48.616;9.548;2024-03-23T05:12:59;3.97;;;3.00;;
9138;SDS011;4604;48.616;9.548;2024-03-23T05:15:27;4.67;;;2.87;;
9138;SDS011;4604;48.616;9.548;2024-03-23T05:17:52;3.20;;;2.60;;
9138;SDS011;4604;48.616;9.548;2024-03-23T05:20:19;4.47;;;2.87;;
9138;SDS011;4604;48.616;9.548;2024-03-23T05:22:45;3.95;;;3.13;;
9138;SDS011;4604;48.616;9.548;2024-03-23T05:25:11;3.63;;;2.73;;
9138;SDS011;4604;48.616;9.548;2024-03-23T05:27:37;2.90;;;2.57;;
9138;SDS011;4604;48.616;9.548;2024-03-23T05:30:04;5.17;;;3.10;;
9138;SDS011;4604;48.616;9.548;2024-03-23T05:32:32;5.13;;;4.27;;
9138;SDS011;4604;48.616;9.548;2024-03-23T05:34:59;7.60;;;4.03;;
9138;SDS011;4604;48.616;9.548;2024-03-23T05:37:24;7.47;;;4.47;;
9138;SDS011;4604;48.616;9.548;2024-03-23T05:39:51;7.07;;;4.97;;
9138;SDS011;4604;48.616;9.548;2024-03-23T05:42:16;8.77;;;5.47;;
9138;SDS011;4604;48.616;9.548;2024-03-23T05:44:43;9.07;;;5.40;;
9138;SDS011;4604;48.616;9.548;2024-03-23T05:47:10;11.00;;;6.07;;
9138;SDS011;4604;48.616;9.548;2024-03-23T05:49:39;8.90;;;5.73;;
9138;SDS011;4604;48.616;9.548;2024-03-23T05:52:06;8.90;;;6.27;;
9138;SDS011;4604;48.616;9.548;2024-03-23T05:54:33;11.80;;;6.40;;
9138;SDS011;4604;48.616;9.548;2024-03-23T05:56:59;11.17;;;6.33;;
9138;SDS011;4604;48.616;9.548;2024-03-23T05:59:25;10.27;;;6.83;;
9138;SDS011;4604;48.616;9.548;2024-03-23T06:01:52;10.33;;;6.50;;
9138;SDS011;4604;48.616;9.548;2024-03-23T06:04:19;13.57;;;7.50;;
9138;SDS011;4604;48.616;9.548;2024-03-23T06:06:46;10.87;;;7.40;;
9138;SDS011;4604;48.616;9.548;2024-03-23T06:09:12;13.43;;;8.13;;
9138;SDS011;4604;48.616;9.548;2024-03-23T06:11:38;12.17;;;8.63;;
9138;SDS011;4604;48.616;9.548;2024-03-23T06:14:05;14.53;;;9.03;;
9138;SDS011;4604;48.616;9.548;2024-03-23T06:16:31;12.97;;;8.83;;
9138;SDS011;4604;48.616;9.548;2024-03-23T06:18:57;11.90;;;7.77;;
9138;SDS011;4604;48.616;9.548;2024-03-23T06:21:23;13.17;;;8.73;;
9138;SDS011;4604;48.616;9.548;2024-03-23T06:23:52;11.70;;;7.97;;
9138;SDS011;4604;48.616;9.548;2024-03-23T06:26:18;13.47;;;8.40;;
9138;SDS011;4604;48.616;9.548;2024-03-23T06:28:45;11.93;;;8.20;;
9138;SDS011;4604;48.616;9.548;2024-03-23T06:31:11;14.07;;;8.60;;
9138;SDS011;4604;48.616;9.548;2024-03-23T06:33:38;10.53;;;7.60;;
9138;SDS011;4604;48.616;9.548;2024-03-23T06:36:04;13.67;;;7.60;;
9138;SDS011;4604;48.616;9.548;2024-03-23T06:38:31;9.80;;;6.47;;
9138;SDS011;4604;48.616;9.548;2024-03-23T06:40:58;11.53;;;5.87;;
9138;SDS011;4604;48.616;9.548;2024-03-23T06:43:25;14.53;;;6.30;;
9138;SDS011;4604;48.616;9.548;2024-03-23T06:45:53;8.77;;;5.80;;
9138;SDS011;4604;48.616;9.548;2024-03-23T06:48:20;5.90;;;4.23;;
9138;SDS011;4604;48.616;9.548;2024-03-23T06:50:47;6.20;;;4.17;;
9138;SDS011;4604;48.616;9.548;2024-03-23T06:53:13;8.33;;;4.30;;
9138;SDS011;4604;48.616;9.548;2024-03-23T06:55:40;7.93;;;3.43;;
9138;SDS011;4604;48.616;9.548;2024-03-23T06:58:08;4.90;;;3.43;;
9138;SDS011;4604;48.616;9.548;2024-03-23T07:00:35;5.80;;;3.53;;
9138;SDS011;4604;48.616;9.548;2024-03-23T07:03:01;5.50;;;3.60;;
9138;SDS011;4604;48.616;9.548;2024-03-23T07:05:28;4.33;;;3.43;;
9138;SDS011;4604;48.616;9.548;2024-03-23T07:07:54;6.20;;;4.70;;
9138;SDS011;4604;48.616;9.548;2024-03-23T07:10:21;7.03;;;4.70;;
9138;SDS011;4604;48.616;9.548;2024-03-23T07:12:46;6.17;;;3.50;;
9138;SDS011;4604;48.616;9.548;2024-03-23T07:15:14;3.73;;;2.83;;
9138;SDS011;4604;48.616;9.548;2024-03-23T07:17:41;2.80;;;1.97;;
9138;SDS011;4604;48.616;9.548;2024-03-23T07:20:08;3.93;;;2.40;;
9138;SDS011;4604;48.616;9.548;2024-03-23T07:22:35;2.43;;;2.00;;
9138;SDS011;4604;48.616;9.548;2024-03-23T07:25:02;4.37;;;3.33;;
9138;SDS011;4604;48.616;9.548;2024-03-23T07:27:28;1.77;;;1.60;;
9138;SDS011;4604;48.616;9.548;2024-03-23T07:29:55;1.53;;;1.30;;
9138;SDS011;4604;48.616;9.548;2024-03-23T07:32:22;2.00;;;1.67;;
9138;SDS011;4604;48.616;9.548;2024-03-23T07:34:48;2.10;;;1.33;;
9138;SDS011;4604;48.616;9.548;2024-03-23T07:37:14;1.10;;;1.00;;
9138;SDS011;4604;48.616;9.548;2024-03-23T07:39:40;2.17;;;1.70;;
9138;SDS011;4604;48.616;9.548;2024-03-23T07:42:06;1.77;;;1.30;;
9138;SDS011;4604;48.616;9.548;2024-03-23T07:44:33;1.17;;;1.03;;
9138;SDS011;4604;48.616;9.548;2024-03-23T07:46:58;2.60;;;1.10;;
9138;SDS011;4604;48.616;9.548;2024-03-23T07:49:27;1.23;;;1.13;;
9138;SDS011;4604;48.616;9.548;2024-03-23T07:51:53;2.80;;;1.27;;
9138;SDS011;4604;48.616;9.548;2024-03-23T07:54:19;1.17;;;1.00;;
9138;SDS011;4604;48.616;9.548;2024-03-23T07:56:45;0.93;;;0.87;;
9138;SDS011;4604;48.616;9.548;2024-03-23T07:59:12;1.70;;;1.10;;
9138;SDS011;4604;48.616;9.548;2024-03-23T08:01:37;1.13;;;1.00;;
9138;SDS011;4604;48.616;9.548;2024-03-23T08:04:04;1.97;;;1.13;;
9138;SDS011;4604;48.616;9.548;2024-03-23T08:06:31;1.13;;;0.90;;
9138;SDS011;4604;48.616;9.548;2024-03-23T08:08:57;2.40;;;1.83;;
9138;SDS011;4604;48.616;9.548;2024-03-23T08:11:27;1.60;;;1.40;;
9138;SDS011;4604;48.616;9.548;2024-03-23T08:13:55;1.93;;;0.80;;
9138;SDS011;4604;48.616;9.548;2024-03-23T08:16:21;3.90;;;1.03;;
9138;SDS011;4604;48.616;9.548;2024-03-23T08:18:48;0.70;;;0.60;;
9138;SDS011;4604;48.616;9.548;2024-03-23T08:21:16;0.30;;;0.30;;
9138;SDS011;4604;48.616;9.548;2024-03-23T08:23:44;0.40;;;0.40;;
9138;SDS011;4604;48.616;9.548;2024-03-23T08:26:10;2.30;;;0.20;;
9138;SDS011;4604;48.616;9.548;2024-03-23T08:28:38;0.40;;;0.40;;
9138;SDS011;4604;48.616;9.548;2024-03-23T08:31:04;2.53;;;0.50;;
9138;SDS011;4604;48.616;9.548;2024-03-23T08:33:34;0.73;;;0.50;;
9138;SDS011;4604;48.616;9.548;2024-03-23T08:36:01;0.30;;;0.30;;
9138;SDS011;4604;48.616;9.548;2024-03-23T08:38:29;0.83;;;0.73;;
9138;SDS011;4604;48.616;9.548;2024-03-23T08:40:59;0.63;;;0.60;;
9138;SDS011;4604;48.616;9.548;2024-03-23T08:43:28;0.60;;;0.40;;
9138;SDS011;4604;48.616;9.548;2024-03-23T08:46:02;0.63;;;0.40;;
9138;SDS011;4604;48.616;9.548;2024-03-23T08:48:29;0.60;;;0.60;;
9138;SDS011;4604;48.616;9.548;2024-03-23T08:50:58;0.67;;;0.60;;
9138;SDS011;4604;48.616;9.548;2024-03-23T08:53:27;0.67;;;0.63;;
9138;SDS011;4604;48.616;9.548;2024-03-23T08:55:53;0.87;;;0.87;;
9138;SDS011;4604;48.616;9.548;2024-03-23T08:58:21;2.47;;;1.37;;
9138;SDS011;4604;48.616;9.548;2024-03-23T09:00:49;1.20;;;1.10;;
9138;SDS011;4604;48.616;9.548;2024-03-23T09:03:15;1.33;;;1.13;;
9138;SDS011;4604;48.616;9.548;2024-03-23T09:05:41;1.60;;;1.13;;
9138;SDS011;4604;48.616;9.548;2024-03-23T09:08:08;2.33;;;1.43;;
9138;SDS011;4604;48.616;9.548;2024-03-23T09:10:35;2.60;;;1.60;;
9138;SDS011;4604;48.616;9.548;2024-03-23T09:13:04;1.60;;;1.27;;
9138;SDS011;4604;48.616;9.548;2024-03-23T09:15:31;5.50;;;1.80;;
9138;SDS011;4604;48.616;9.548;2024-03-23T09:17:58;4.90;;;2.13;;
9138;SDS011;4604;48.616;9.548;2024-03-23T09:20:24;2.80;;;2.00;;
9138;SDS011;4604;48.616;9.548;2024-03-23T09:22:51;2.00;;;1.70;;
9138;SDS011;4604;48.616;9.548;2024-03-23T09:25:16;1.20;;;1.10;;
9138;SDS011;4604;48.616;9.548;2024-03-23T09:27:44;1.63;;;1.53;;
9138;SDS011;4604;48.616;9.548;2024-03-23T09:30:11;2.27;;;1.20;;
9138;SDS011;4604;48.616;9.548;2024-03-23T09:32:40;4.03;;;1.43;;
9138;SDS011;4604;48.616;9.548;2024-03-23T09:35:07;2.07;;;1.33;;
9138;SDS011;4604;48.616;9.548;2024-03-23T09:37:34;7.43;;;1.90;;
9138;SDS011;4604;48.616;9.548;2024-03-23T09:39:59;3.63;;;1.80;;
9138;SDS011;4604;48.616;9.548;2024-03-23T09:42:26;5.00;;;2.27;;
9138;SDS011;4604;48.616;9.548;2024-03-23T09:44:52;3.33;;;1.90;;
9138;SDS011;4604;48.616;9.548;2024-03-23T09:47:19;4.20;;;2.20;;
9138;SDS011;4604;48.616;9.548;2024-03-23T09:49:46;3.93;;;1.67;;
9138;SDS011;4604;48.616;9.548;2024-03-23T09:52:12;4.87;;;1.97;;
9138;SDS011;4604;48.616;9.548;2024-03-23T09:54:38;3.33;;;1.80;;
9138;SDS011;4604;48.616;9.548;2024-03-23T09:57:04;5.50;;;1.97;;
9138;SDS011;4604;48.616;9.548;2024-03-23T09:59:31;3.50;;;2.10;;
9138;SDS011;4604;48.616;9.548;2024-03-23T10:01:59;8.17;;;2.47;;
9138;SDS011;4604;48.616;9.548;2024-03-23T10:04:37;4.30;;;2.20;;
9138;SDS011;4604;48.616;9.548;2024-03-23T10:07:12;3.97;;;2.30;;
9138;SDS011;4604;48.616;9.548;2024-03-23T10:09:39;4.83;;;2.70;;
9138;SDS011;4604;48.616;9.548;2024-03-23T10:12:09;3.73;;;2.60;;
9138;SDS011;4604;48.616;9.548;2024-03-23T10:14:35;8.80;;;2.73;;
9138;SDS011;4604;48.616;9.548;2024-03-23T10:17:11;4.37;;;2.87;;
9138;SDS011;4604;48.616;9.548;2024-03-23T10:19:38;9.37;;;3.00;;
9138;SDS011;4604;48.616;9.548;2024-03-23T10:22:06;4.00;;;2.90;;
9138;SDS011;4604;48.616;9.548;2024-03-23T10:24:33;6.67;;;3.27;;
9138;SDS011;4604;48.616;9.548;2024-03-23T10:26:59;6.90;;;3.23;;
9138;SDS011;4604;48.616;9.548;2024-03-23T10:29:25;8.17;;;3.10;;
9138;SDS011;4604;48.616;9.548;2024-03-23T10:31:52;8.30;;;2.83;;
9138;SDS011;4604;48.616;9.548;2024-03-23T10:34:21;8.27;;;3.20;;
9138;SDS011;4604;48.616;9.548;2024-03-23T10:36:52;8.77;;;3.13;;
9138;SDS011;4604;48.616;9.548;2024-03-23T10:39:18;5.17;;;2.93;;
9138;SDS011;4604;48.616;9.548;2024-03-23T10:41:48;7.33;;;2.83;;
9138;SDS011;4604;48.616;9.548;2024-03-23T10:44:16;5.03;;;2.90;;
9138;SDS011;4604;48.616;9.548;2024-03-23T10:46:45;6.87;;;2.77;;
9138;SDS011;4604;48.616;9.548;2024-03-23T10:49:11;4.90;;;3.13;;
9138;SDS011;4604;48.616;9.548;2024-03-23T10:51:37;6.60;;;3.10;;
9138;SDS011;4604;48.616;9.548;2024-03-23T10:54:03;6.03;;;2.90;;
9138;SDS011;4604;48.616;9.548;2024-03-23T10:56:31;7.60;;;2.90;;
9138;SDS011;4604;48.616;9.548;2024-03-23T10:59:01;4.83;;;3.03;;
9138;SDS011;4604;48.616;9.548;2024-03-23T11:01:30;5.40;;;2.33;;
9138;SDS011;4604;48.616;9.548;2024-03-23T11:03:56;5.80;;;3.23;;
9138;SDS011;4604;48.616;9.548;2024-03-23T11:06:35;4.70;;;2.63;;
9138;SDS011;4604;48.616;9.548;2024-03-23T11:09:01;5.17;;;2.63;;
9138;SDS011;4604;48.616;9.548;2024-03-23T11:11:28;7.03;;;3.10;;
9138;SDS011;4604;48.616;9.548;2024-03-23T11:13:57;5.33;;;3.10;;
9138;SDS011;4604;48.616;9.548;2024-03-23T11:16:25;6.30;;;2.67;;
9138;SDS011;4604;48.616;9.548;2024-03-23T11:18:53;5.53;;;2.67;;
9138;SDS011;4604;48.616;9.548;2024-03-23T11:24:17;4.30;;;2.60;;
9138;SDS011;4604;48.616;9.548;2024-03-23T11:26:44;3.50;;;1.97;;
9138;SDS011;4604;48.616;9.548;2024-03-23T11:29:10;4.03;;;2.10;;
9138;SDS011;4604;48.616;9.548;2024-03-23T11:31:38;3.23;;;1.90;;
9138;SDS011;4604;48.616;9.548;2024-03-23T11:34:10;2.50;;;1.77;;
9138;SDS011;4604;48.616;9.548;2024-03-23T11:36:37;3.27;;;1.60;;
9138;SDS011;4604;48.616;9.548;2024-03-23T11:39:11;2.17;;;1.83;;
9138;SDS011;4604;48.616;9.548;2024-03-23T11:41:44;2.33;;;1.80;;
9138;SDS011;4604;48.616;9.548;2024-03-23T11:44:17;4.57;;;1.77;;
9138;SDS011;4604;48.616;9.548;2024-03-23T11:46:45;3.90;;;2.00;;
9138;SDS011;4604;48.616;9.548;2024-03-23T11:49:21;4.43;;;2.33;;
9138;SDS011;4604;48.616;9.548;2024-03-23T11:51:48;4.63;;;2.83;;
9138;SDS011;4604;48.616;9.548;2024-03-23T11:54:15;7.10;;;2.47;;
9138;SDS011;4604;48.616;9.548;2024-03-23T11:56:53;2.47;;;2.03;;
9138;SDS011;4604;48.616;9.548;2024-03-23T11:59:29;3.60;;;1.90;;
9138;SDS011;4604;48.616;9.548;2024-03-23T12:01:58;3.97;;;1.63;;
9138;SDS011;4604;48.616;9.548;2024-03-23T12:04:27;4.47;;;2.20;;
9138;SDS011;4604;48.616;9.548;2024-03-23T12:07:10;3.53;;;2.13;;
9138;SDS011;4604;48.616;9.548;2024-03-23T12:09:36;3.13;;;2.07;;
9138;SDS011;4604;48.616;9.548;2024-03-23T12:12:07;2.60;;;1.80;;
9138;SDS011;4604;48.616;9.548;2024-03-23T12:14:34;5.87;;;2.03;;
9138;SDS011;4604;48.616;9.548;2024-03-23T12:17:08;3.73;;;1.80;;
9138;SDS011;4604;48.616;9.548;2024-03-23T12:19:35;4.83;;;2.33;;
9138;SDS011;4604;48.616;9.548;2024-03-23T12:22:02;4.73;;;1.70;;
9138;SDS011;4604;48.616;9.548;2024-03-23T12:24:30;5.07;;;1.87;;
9138;SDS011;4604;48.616;9.548;2024-03-23T12:26:59;2.70;;;1.87;;
9138;SDS011;4604;48.616;9.548;2024-03-23T12:29:26;2.10;;;1.90;;
9138;SDS011;4604;48.616;9.548;2024-03-23T12:31:53;3.37;;;1.83;;
9138;SDS011;4604;48.616;9.548;2024-03-23T12:34:20;4.97;;;1.90;;
9138;SDS011;4604;48.616;9.548;2024-03-23T12:36:47;3.23;;;1.80;;
9138;SDS011;4604;48.616;9.548;2024-03-23T12:39:12;2.70;;;1.83;;
9138;SDS011;4604;48.616;9.548;2024-03-23T12:41:39;2.27;;;1.80;;
9138;SDS011;4604;48.616;9.548;2024-03-23T12:44:04;2.73;;;1.73;;
9138;SDS011;4604;48.616;9.548;2024-03-23T12:46:33;5.33;;;2.17;;
9138;SDS011;4604;48.616;9.548;2024-03-23T12:48:59;3.63;;;1.70;;
9138;SDS011;4604;48.616;9.548;2024-03-23T12:51:27;3.03;;;1.90;;
9138;SDS011;4604;48.616;9.548;2024-03-23T12:53:52;9.47;;;2.27;;
9138;SDS011;4604;48.616;9.548;2024-03-23T12:56:19;4.50;;;1.83;;
9138;SDS011;4604;48.616;9.548;2024-03-23T12:58:45;7.73;;;2.47;;
9138;SDS011;4604;48.616;9.548;2024-03-23T13:01:13;5.90;;;2.40;;
9138;SDS011;4604;48.616;9.548;2024-03-23T13:03:39;4.90;;;2.07;;
9138;SDS011;4604;48.616;9.548;2024-03-23T13:06:06;6.10;;;2.30;;
9138;SDS011;4604;48.616;9.548;2024-03-23T13:08:34;9.57;;;3.00;;
9138;SDS011;4604;48.616;9.548;2024-03-23T13:11:00;4.30;;;2.73;;
9138;SDS011;4604;48.616;9.548;2024-03-23T13:13:26;8.67;;;2.80;;
9138;SDS011;4604;48.616;9.548;2024-03-23T13:15:53;4.60;;;2.73;;
9138;SDS011;4604;48.616;9.548;2024-03-23T13:18:18;6.40;;;2.67;;
9138;SDS011;4604;48.616;9.548;2024-03-23T13:20:45;9.57;;;3.07;;
9138;SDS011;4604;48.616;9.548;2024-03-23T13:23:10;6.60;;;3.07;;
9138;SDS011;4604;48.616;9.548;2024-03-23T13:25:38;9.50;;;2.80;;
9138;SDS011;4604;48.616;9.548;2024-03-23T13:28:04;6.87;;;2.57;;
9138;SDS011;4604;48.616;9.548;2024-03-23T13:30:31;7.27;;;2.80;;
9138;SDS011;4604;48.616;9.548;2024-03-23T13:32:57;10.10;;;2.70;;
9138;SDS011;4604;48.616;9.548;2024-03-23T13:35:24;7.40;;;2.80;;
9138;SDS011;4604;48.616;9.548;2024-03-23T13:37:50;4.27;;;2.40;;
9138;SDS011;4604;48.616;9.548;2024-03-23T13:40:16;5.67;;;2.30;;
9138;SDS011;4604;48.616;9.548;2024-03-23T13:42:43;7.30;;;2.77;;
9138;SDS011;4604;48.616;9.548;2024-03-23T13:45:10;4.70;;;1.70;;
9138;SDS011;4604;48.616;9.548;2024-03-23T13:47:37;4.50;;;2.53;;
9138;SDS011;4604;48.616;9.548;2024-03-23T13:50:04;3.50;;;2.13;;
9138;SDS011;4604;48.616;9.548;2024-03-23T13:52:30;8.50;;;2.80;;
9138;SDS011;4604;48.616;9.548;2024-03-23T13:54:57;4.00;;;2.03;;
9138;SDS011;4604;48.616;9.548;2024-03-23T13:57:22;4.00;;;2.23;;
9138;SDS011;4604;48.616;9.548;2024-03-23T13:59:52;2.80;;;1.90;;
9138;SDS011;4604;48.616;9.548;2024-03-23T14:02:18;5.17;;;2.00;;
9138;SDS011;4604;48.616;9.548;2024-03-23T14:04:44;3.63;;;2.07;;
9138;SDS011;4604;48.616;9.548;2024-03-23T14:07:10;7.00;;;1.93;;
9138;SDS011;4604;48.616;9.548;2024-03-23T14:09:36;2.43;;;1.80;;
9138;SDS011;4604;48.616;9.548;2024-03-23T14:12:02;7.73;;;1.83;;
9138;SDS011;4604;48.616;9.548;2024-03-23T14:14:29;3.50;;;1.70;;
9138;SDS011;4604;48.616;9.548;2024-03-23T14:16:56;3.30;;;1.80;;
9138;SDS011;4604;48.616;9.548;2024-03-23T14:19:22;2.90;;;1.90;;
9138;SDS011;4604;48.616;9.548;2024-03-23T14:21:48;2.70;;;1.90;;
9138;SDS011;4604;48.616;9.548;2024-03-23T14:24:15;2.80;;;1.67;;
9138;SDS011;4604;48.616;9.548;2024-03-23T14:26:40;4.13;;;1.73;;
9138;SDS011;4604;48.616;9.548;2024-03-23T14:29:08;4.97;;;2.43;;
9138;SDS011;4604;48.616;9.548;2024-03-23T14:31:34;5.20;;;1.67;;
9138;SDS011;4604;48.616;9.548;2024-03-23T14:34:02;2.93;;;1.70;;
9138;SDS011;4604;48.616;9.548;2024-03-23T14:36:27;4.63;;;1.90;;
9138;SDS011;4604;48.616;9.548;2024-03-23T14:38:54;3.90;;;1.90;;
9138;SDS011;4604;48.616;9.548;2024-03-23T14:41:20;3.13;;;1.60;;
9138;SDS011;4604;48.616;9.548;2024-03-23T14:43:46;1.60;;;1.50;;
9138;SDS011;4604;48.616;9.548;2024-03-23T14:46:15;4.10;;;1.67;;
9138;SDS011;4604;48.616;9.548;2024-03-23T14:48:43;4.10;;;1.70;;
9138;SDS011;4604;48.616;9.548;2024-03-23T14:51:10;2.03;;;1.30;;
9138;SDS011;4604;48.616;9.548;2024-03-23T14:53:38;2.27;;;1.40;;
9138;SDS011;4604;48.616;9.548;2024-03-23T14:56:05;2.10;;;1.27;;
9138;SDS011;4604;48.616;9.548;2024-03-23T14:58:32;1.87;;;1.50;;
9138;SDS011;4604;48.616;9.548;2024-03-23T15:01:00;2.00;;;1.40;;
9138;SDS011;4604;48.616;9.548;2024-03-23T15:03:26;2.17;;;1.60;;
9138;SDS011;4604;48.616;9.548;2024-03-23T15:05:53;8.37;;;3.50;;
9138;SDS011;4604;48.616;9.548;2024-03-23T15:08:21;3.23;;;1.87;;
9138;SDS011;4604;48.616;9.548;2024-03-23T15:10:48;3.80;;;1.97;;
9138;SDS011;4604;48.616;9.548;2024-03-23T15:13:14;2.70;;;1.50;;
9138;SDS011;4604;48.616;9.548;2024-03-23T15:15:41;4.17;;;1.60;;
9138;SDS011;4604;48.616;9.548;2024-03-23T15:18:09;2.47;;;1.37;;
9138;SDS011;4604;48.616;9.548;2024-03-23T15:20:37;5.03;;;1.73;;
9138;SDS011;4604;48.616;9.548;2024-03-23T15:23:03;3.07;;;1.67;;
9138;SDS011;4604;48.616;9.548;2024-03-23T15:25:31;3.63;;;1.60;;
9138;SDS011;4604;48.616;9.548;2024-03-23T15:27:57;10.67;;;1.70;;
9138;SDS011;4604;48.616;9.548;2024-03-23T15:30:25;3.43;;;1.53;;
9138;SDS011;4604;48.616;9.548;2024-03-23T15:32:50;2.40;;;1.30;;
9138;SDS011;4604;48.616;9.548;2024-03-23T15:35:17;4.40;;;1.90;;
9138;SDS011;4604;48.616;9.548;2024-03-23T15:37:43;1.53;;;1.40;;
9138;SDS011;4604;48.616;9.548;2024-03-23T15:40:11;1.90;;;1.30;;
9138;SDS011;4604;48.616;9.548;2024-03-23T15:42:39;2.43;;;1.63;;
9138;SDS011;4604;48.616;9.548;2024-03-23T15:45:06;4.00;;;1.80;;
9138;SDS011;4604;48.616;9.548;2024-03-23T15:47:32;1.20;;;1.10;;
9138;SDS011;4604;48.616;9.548;2024-03-23T15:49:59;3.20;;;1.40;;
9138;SDS011;4604;48.616;9.548;2024-03-23T15:52:24;2.90;;;1.13;;
9138;SDS011;4604;48.616;9.548;2024-03-23T15:54:51;1.97;;;1.27;;
9138;SDS011;4604;48.616;9.548;2024-03-23T15:57:17;1.00;;;1.00;;
9138;SDS011;4604;48.616;9.548;2024-03-23T15:59:45;3.70;;;1.10;;
9138;SDS011;4604;48.616;9.548;2024-03-23T16:02:10;2.70;;;1.27;;
9138;SDS011;4604;48.616;9.548;2024-03-23T16:04:37;13.40;;;1.73;;
9138;SDS011;4604;48.616;9.548;2024-03-23T16:07:03;1.57;;;1.10;;